createdAt,value
2022-09-17T00:00:37.156Z,14.33
2022-09-17T00:01:36.449Z,14.33
2022-09-17T00:02:36.924Z,14.34
2022-09-17T00:03:36.868Z,14.34
2022-09-17T00:04:36.861Z,14.34
2022-09-17T00:05:36.840Z,14.35
2022-09-17T00:06:36.140Z,14.34
2022-09-17T00:07:37.110Z,14.34
2022-09-17T00:08:36.120Z,14.35
2022-09-17T00:09:36.179Z,14.35
2022-09-17T00:10:36.802Z,14.34
2022-09-17T00:11:36.780Z,14.35
2022-09-17T00:12:36.780Z,14.35
2022-09-17T00:13:36.844Z,14.34
2022-09-17T00:14:36.753Z,14.35
2022-09-17T00:15:36.742Z,14.33
2022-09-17T00:16:36.130Z,14.33
2022-09-17T00:17:36.713Z,14.33
2022-09-17T00:18:36.015Z,14.33
2022-09-17T00:19:36.173Z,14.32
2022-09-17T00:20:36.684Z,14.31
2022-09-17T00:21:36.663Z,14.31
2022-09-17T00:22:35.973Z,14.30
2022-09-17T00:23:35.955Z,14.30
2022-09-17T00:24:35.953Z,14.29
2022-09-17T00:25:36.622Z,14.28
2022-09-17T00:26:36.624Z,14.27
2022-09-17T00:27:35.936Z,14.26
2022-09-17T00:28:36.594Z,14.26
2022-09-17T00:29:35.975Z,14.26
2022-09-17T00:30:35.905Z,14.24
2022-09-17T00:31:36.089Z,14.23
2022-09-17T00:32:35.904Z,14.22
2022-09-17T00:33:36.555Z,14.22
2022-09-17T00:34:35.845Z,14.22
2022-09-17T00:35:35.840Z,14.21
2022-09-17T00:36:36.539Z,14.20
2022-09-17T00:37:35.947Z,14.19
2022-09-17T00:38:36.494Z,14.17
2022-09-17T00:39:37.196Z,14.17
2022-09-17T00:40:35.818Z,14.14
2022-09-17T00:41:35.758Z,14.12
2022-09-17T00:42:35.756Z,14.10
2022-09-17T00:43:36.456Z,14.09
2022-09-17T00:44:35.761Z,14.07
2022-09-17T00:45:36.410Z,14.05
2022-09-17T00:46:35.814Z,14.04
2022-09-17T00:47:36.391Z,14.03
2022-09-17T00:48:36.381Z,14.02
2022-09-17T00:49:35.811Z,14.00
2022-09-17T00:50:36.352Z,13.99
2022-09-17T00:51:37.092Z,13.99
2022-09-17T00:52:36.350Z,13.98
2022-09-17T00:53:35.632Z,13.97
2022-09-17T00:54:35.630Z,13.96
2022-09-17T00:55:36.301Z,13.95
2022-09-17T00:56:36.290Z,13.95
2022-09-17T00:57:36.288Z,13.95
2022-09-17T00:58:40.464Z,13.96
2022-09-17T00:59:38.001Z,13.95
2022-09-17T01:00:35.658Z,13.95
2022-09-17T01:01:35.806Z,13.94
2022-09-17T01:02:35.637Z,13.93
2022-09-17T01:03:36.212Z,13.91
2022-09-17T01:04:35.511Z,13.90
2022-09-17T01:05:35.502Z,13.89
2022-09-17T01:06:35.518Z,13.89
2022-09-17T01:07:35.523Z,13.89
2022-09-17T01:08:35.503Z,13.89
2022-09-17T01:09:36.156Z,13.87
2022-09-17T01:10:35.504Z,13.86
2022-09-17T01:11:35.455Z,13.84
2022-09-17T01:12:36.127Z,13.83
2022-09-17T01:13:35.465Z,13.79
2022-09-17T01:14:36.096Z,13.76
2022-09-17T01:15:35.405Z,13.72
2022-09-17T01:16:35.456Z,13.69
2022-09-17T01:17:36.086Z,13.66
2022-09-17T01:18:36.051Z,13.62
2022-09-17T01:19:36.044Z,13.59
2022-09-17T01:20:36.036Z,13.55
2022-09-17T01:21:35.329Z,13.52
2022-09-17T01:22:36.818Z,13.49
2022-09-17T01:23:35.998Z,13.44
2022-09-17T01:24:35.991Z,13.42
2022-09-17T01:25:35.947Z,13.39
2022-09-17T01:26:35.301Z,13.35
2022-09-17T01:27:35.352Z,13.32
2022-09-17T01:28:36.678Z,13.31
2022-09-17T01:29:36.009Z,13.26
2022-09-17T01:30:35.351Z,13.23
2022-09-17T01:31:36.704Z,13.19
2022-09-17T01:32:35.445Z,13.16
2022-09-17T01:33:35.211Z,13.13
2022-09-17T01:34:35.891Z,13.10
2022-09-17T01:35:35.871Z,13.08
2022-09-17T01:36:35.261Z,13.05
2022-09-17T01:37:35.153Z,13.04
2022-09-17T01:38:35.841Z,13.01
2022-09-17T01:39:35.142Z,12.98
2022-09-17T01:40:35.177Z,12.95
2022-09-17T01:41:35.112Z,12.93
2022-09-17T01:42:35.864Z,12.91
2022-09-17T01:43:35.791Z,12.89
2022-09-17T01:44:35.772Z,12.88
2022-09-17T01:45:35.074Z,12.85
2022-09-17T01:46:35.766Z,12.83
2022-09-17T01:47:35.735Z,12.81
2022-09-17T01:48:35.806Z,12.79
2022-09-17T01:49:35.024Z,12.78
2022-09-17T01:50:35.033Z,12.76
2022-09-17T01:51:35.698Z,12.75
2022-09-17T01:52:35.090Z,12.73
2022-09-17T01:53:35.423Z,12.72
2022-09-17T01:54:39.208Z,12.71
2022-09-17T01:55:36.667Z,12.70
2022-09-17T01:56:35.660Z,12.68
2022-09-17T01:57:35.118Z,12.67
2022-09-17T01:58:34.974Z,12.66
2022-09-17T01:59:35.135Z,12.64
2022-09-17T02:00:35.063Z,12.65
2022-09-17T02:01:34.992Z,12.63
2022-09-17T02:02:34.886Z,12.63
2022-09-17T02:03:34.905Z,12.63
2022-09-17T02:04:34.875Z,12.64
2022-09-17T02:05:35.575Z,12.65
2022-09-17T02:06:35.532Z,12.65
2022-09-17T02:07:35.530Z,12.66
2022-09-17T02:08:35.520Z,12.67
2022-09-17T02:09:35.515Z,12.66
2022-09-17T02:10:36.248Z,12.66
2022-09-17T02:11:35.488Z,12.65
2022-09-17T02:12:34.901Z,12.63
2022-09-17T02:13:35.457Z,12.61
2022-09-17T02:14:35.463Z,12.59
2022-09-17T02:15:34.767Z,12.58
2022-09-17T02:16:35.527Z,12.56
2022-09-17T02:17:34.788Z,12.54
2022-09-17T02:18:35.491Z,12.53
2022-09-17T02:19:34.730Z,12.51
2022-09-17T02:20:35.401Z,12.50
2022-09-17T02:21:34.711Z,12.48
2022-09-17T02:22:34.690Z,12.48
2022-09-17T02:23:35.361Z,12.46
2022-09-17T02:24:35.333Z,12.44
2022-09-17T02:25:34.640Z,12.42
2022-09-17T02:26:34.650Z,12.41
2022-09-17T02:27:35.313Z,12.41
2022-09-17T02:28:36.052Z,12.40
2022-09-17T02:29:35.309Z,12.38
2022-09-17T02:30:35.690Z,12.37
2022-09-17T02:31:34.620Z,12.35
2022-09-17T02:32:34.601Z,12.33
2022-09-17T02:33:35.255Z,12.31
2022-09-17T02:34:34.555Z,12.30
2022-09-17T02:35:34.549Z,12.28
2022-09-17T02:36:36.034Z,12.26
2022-09-17T02:37:35.467Z,12.25
2022-09-17T02:38:34.516Z,12.25
2022-09-17T02:39:35.201Z,12.25
2022-09-17T02:40:35.244Z,12.22
2022-09-17T02:41:35.257Z,12.21
2022-09-17T02:42:34.517Z,12.20
2022-09-17T02:43:34.464Z,12.18
2022-09-17T02:44:34.513Z,12.17
2022-09-17T02:45:35.125Z,12.17
2022-09-17T02:46:34.441Z,12.16
2022-09-17T02:47:35.094Z,12.15
2022-09-17T02:48:35.337Z,12.15
2022-09-17T02:49:34.405Z,12.13
2022-09-17T02:50:34.392Z,12.12
2022-09-17T02:51:35.058Z,12.11
2022-09-17T02:52:35.037Z,12.10
2022-09-17T02:53:35.120Z,12.09
2022-09-17T02:54:35.019Z,12.09
2022-09-17T02:55:35.015Z,12.08
2022-09-17T02:56:35.027Z,12.07
2022-09-17T02:57:34.338Z,12.05
2022-09-17T02:58:34.977Z,12.04
2022-09-17T02:59:35.757Z,12.03
2022-09-17T03:00:34.328Z,12.02
2022-09-17T03:01:35.017Z,12.01
2022-09-17T03:02:35.119Z,12.00
2022-09-17T03:03:34.933Z,11.99
2022-09-17T03:04:35.699Z,11.98
2022-09-17T03:05:34.889Z,11.98
2022-09-17T03:06:34.898Z,11.98
2022-09-17T03:07:34.881Z,11.98
2022-09-17T03:08:34.862Z,11.98
2022-09-17T03:09:34.875Z,11.99
2022-09-17T03:10:34.165Z,11.99
2022-09-17T03:11:34.830Z,12.01
2022-09-17T03:12:34.840Z,12.01
2022-09-17T03:13:34.824Z,12.03
2022-09-17T03:14:34.810Z,12.05
2022-09-17T03:15:34.801Z,12.06
2022-09-17T03:16:34.489Z,12.07
2022-09-17T03:17:34.186Z,12.08
2022-09-17T03:18:34.101Z,12.09
2022-09-17T03:19:34.072Z,12.10
2022-09-17T03:20:34.103Z,12.10
2022-09-17T03:21:34.732Z,12.11
2022-09-17T03:22:34.763Z,12.11
2022-09-17T03:23:34.372Z,12.11
2022-09-17T03:24:35.473Z,12.11
2022-09-17T03:25:34.173Z,12.11
2022-09-17T03:26:34.676Z,12.11
2022-09-17T03:27:34.005Z,12.09
2022-09-17T03:28:33.967Z,12.08
2022-09-17T03:29:34.004Z,12.07
2022-09-17T03:30:34.634Z,12.07
2022-09-17T03:31:35.482Z,12.05
2022-09-17T03:32:34.606Z,12.04
2022-09-17T03:33:34.614Z,12.04
2022-09-17T03:34:34.586Z,12.03
2022-09-17T03:35:35.085Z,12.02
2022-09-17T03:36:34.575Z,12.01
2022-09-17T03:37:33.876Z,12.01
2022-09-17T03:38:34.552Z,11.99
2022-09-17T03:39:34.537Z,11.98
2022-09-17T03:40:33.870Z,11.96
2022-09-17T03:41:33.837Z,11.95
2022-09-17T03:42:34.507Z,11.93
2022-09-17T03:43:34.497Z,11.92
2022-09-17T03:44:34.483Z,11.91
2022-09-17T03:45:34.469Z,11.90
2022-09-17T03:46:34.489Z,11.88
2022-09-17T03:47:34.449Z,11.87
2022-09-17T03:48:34.433Z,11.86
2022-09-17T03:49:34.428Z,11.85
2022-09-17T03:50:34.459Z,11.84
2022-09-17T03:51:34.426Z,11.84
2022-09-17T03:52:33.776Z,11.84
2022-09-17T03:53:33.680Z,11.84
2022-09-17T03:54:34.369Z,11.82
2022-09-17T03:55:34.361Z,11.82
2022-09-17T03:56:34.355Z,11.81
2022-09-17T03:57:33.666Z,11.80
2022-09-17T03:58:33.753Z,11.79
2022-09-17T03:59:33.650Z,11.78
2022-09-17T04:00:35.576Z,11.77
2022-09-17T04:01:34.360Z,11.77
2022-09-17T04:02:34.421Z,11.77
2022-09-17T04:03:35.032Z,11.78
2022-09-17T04:04:34.261Z,11.76
2022-09-17T04:05:35.013Z,11.76
2022-09-17T04:06:34.253Z,11.75
2022-09-17T04:07:33.569Z,11.73
2022-09-17T04:08:34.224Z,11.73
2022-09-17T04:09:35.346Z,11.72
2022-09-17T04:10:34.581Z,11.72
2022-09-17T04:11:33.503Z,11.72
2022-09-17T04:12:34.183Z,11.72
2022-09-17T04:13:34.163Z,11.71
2022-09-17T04:14:34.592Z,11.71
2022-09-17T04:15:33.465Z,11.72
2022-09-17T04:16:33.609Z,11.72
2022-09-17T04:17:33.446Z,11.71
2022-09-17T04:18:33.447Z,11.70
2022-09-17T04:19:33.432Z,11.71
2022-09-17T04:20:33.402Z,11.71
2022-09-17T04:21:33.395Z,11.71
2022-09-17T04:22:34.887Z,11.72
2022-09-17T04:23:34.065Z,11.70
2022-09-17T04:24:34.318Z,11.71
2022-09-17T04:25:34.052Z,11.70
2022-09-17T04:26:34.036Z,11.70
2022-09-17T04:27:33.353Z,11.70
2022-09-17T04:28:34.006Z,11.70
2022-09-17T04:29:33.320Z,11.70
2022-09-17T04:30:33.317Z,11.70
2022-09-17T04:31:34.283Z,11.69
2022-09-17T04:32:34.175Z,11.69
2022-09-17T04:33:33.267Z,11.68
2022-09-17T04:34:33.289Z,11.68
2022-09-17T04:35:33.237Z,11.70
2022-09-17T04:36:33.919Z,11.70
2022-09-17T04:37:33.913Z,11.71
2022-09-17T04:38:33.898Z,11.73
2022-09-17T04:39:34.650Z,11.75
2022-09-17T04:40:33.294Z,11.77
2022-09-17T04:41:33.859Z,11.79
2022-09-17T04:42:33.853Z,11.81
2022-09-17T04:43:33.177Z,11.81
2022-09-17T04:44:33.181Z,11.83
2022-09-17T04:45:33.853Z,11.83
2022-09-17T04:46:33.311Z,11.83
2022-09-17T04:47:34.563Z,11.82
2022-09-17T04:48:33.796Z,11.81
2022-09-17T04:49:33.290Z,11.80
2022-09-17T04:50:33.084Z,11.79
2022-09-17T04:51:33.764Z,11.78
2022-09-17T04:52:33.121Z,11.77
2022-09-17T04:53:33.051Z,11.75
2022-09-17T04:54:33.730Z,11.74
2022-09-17T04:55:33.721Z,11.72
2022-09-17T04:56:33.031Z,11.71
2022-09-17T04:57:34.006Z,11.69
2022-09-17T04:58:33.760Z,11.69
2022-09-17T04:59:33.673Z,11.67
2022-09-17T05:00:33.696Z,11.67
2022-09-17T05:01:34.415Z,11.66
2022-09-17T05:02:33.480Z,11.66
2022-09-17T05:03:33.638Z,11.66
2022-09-17T05:04:33.617Z,11.65
2022-09-17T05:05:33.625Z,11.64
2022-09-17T05:06:33.603Z,11.64
2022-09-17T05:07:33.593Z,11.64
2022-09-17T05:08:32.902Z,11.65
2022-09-17T05:09:33.588Z,11.66
2022-09-17T05:10:33.148Z,11.67
2022-09-17T05:11:33.670Z,11.68
2022-09-17T05:12:34.600Z,11.69
2022-09-17T05:13:32.846Z,11.71
2022-09-17T05:14:32.836Z,11.72
2022-09-17T05:15:32.849Z,11.74
2022-09-17T05:16:33.563Z,11.76
2022-09-17T05:17:34.758Z,11.78
2022-09-17T05:18:32.787Z,11.79
2022-09-17T05:19:33.465Z,11.81
2022-09-17T05:20:32.769Z,11.83
2022-09-17T05:21:32.808Z,11.86
2022-09-17T05:22:34.346Z,11.89
2022-09-17T05:23:32.768Z,11.91
2022-09-17T05:24:33.555Z,11.94
2022-09-17T05:25:33.556Z,11.96
2022-09-17T05:26:33.393Z,11.98
2022-09-17T05:27:33.623Z,11.99
2022-09-17T05:28:33.671Z,12.01
2022-09-17T05:29:34.643Z,12.03
2022-09-17T05:30:32.679Z,12.05
2022-09-17T05:31:32.719Z,12.07
2022-09-17T05:32:33.583Z,12.08
2022-09-17T05:33:33.318Z,12.11
2022-09-17T05:34:32.656Z,12.13
2022-09-17T05:35:33.300Z,12.16
2022-09-17T05:36:33.280Z,12.19
2022-09-17T05:37:33.282Z,12.23
2022-09-17T05:38:34.416Z,12.28
2022-09-17T05:39:33.252Z,12.32
2022-09-17T05:40:33.534Z,12.37
2022-09-17T05:41:33.232Z,12.42
2022-09-17T05:42:33.515Z,12.47
2022-09-17T05:43:33.215Z,12.53
2022-09-17T05:44:33.442Z,12.59
2022-09-17T05:45:33.934Z,12.65
2022-09-17T05:46:32.608Z,12.70
2022-09-17T05:47:32.525Z,12.74
2022-09-17T05:48:33.153Z,12.80
2022-09-17T05:49:34.435Z,12.85
2022-09-17T05:50:33.147Z,12.89
2022-09-17T05:51:33.132Z,12.90
2022-09-17T05:52:33.114Z,12.90
2022-09-17T05:53:32.495Z,12.90
2022-09-17T05:54:33.100Z,12.90
2022-09-17T05:55:32.404Z,12.91
2022-09-17T05:56:34.436Z,12.90
2022-09-17T05:57:33.317Z,12.89
2022-09-17T05:58:33.478Z,12.89
2022-09-17T05:59:34.305Z,12.88
2022-09-17T06:00:33.288Z,12.87
2022-09-17T06:01:34.427Z,12.88
2022-09-17T06:02:33.028Z,12.88
2022-09-17T06:03:32.329Z,12.87
2022-09-17T06:04:35.037Z,12.87
2022-09-17T06:05:33.218Z,12.86
2022-09-17T06:06:33.730Z,12.87
2022-09-17T06:07:32.269Z,12.89
2022-09-17T06:08:32.937Z,12.91
2022-09-17T06:09:32.260Z,12.95
2022-09-17T06:10:32.907Z,12.97
2022-09-17T06:11:33.168Z,13.01
2022-09-17T06:12:32.230Z,13.05
2022-09-17T06:13:34.158Z,13.08
2022-09-17T06:14:32.880Z,13.09
2022-09-17T06:15:33.142Z,13.12
2022-09-17T06:16:32.351Z,13.20
2022-09-17T06:17:32.848Z,13.35
2022-09-17T06:18:33.098Z,13.47
2022-09-17T06:19:32.820Z,13.60
2022-09-17T06:20:33.085Z,13.72
2022-09-17T06:21:33.562Z,13.83
2022-09-17T06:22:32.943Z,13.95
2022-09-17T06:23:32.111Z,14.07
2022-09-17T06:24:32.082Z,14.22
2022-09-17T06:25:32.751Z,14.40
2022-09-17T06:26:32.745Z,14.51
2022-09-17T06:27:33.014Z,14.59
2022-09-17T06:28:32.713Z,14.68
2022-09-17T06:29:32.086Z,14.80
2022-09-17T06:30:32.022Z,14.99
2022-09-17T06:31:32.733Z,15.15
2022-09-17T06:32:32.061Z,15.34
2022-09-17T06:33:32.674Z,15.63
2022-09-17T06:34:32.933Z,15.98
2022-09-17T06:35:32.643Z,16.32
2022-09-17T06:36:31.978Z,16.64
2022-09-17T06:37:32.638Z,17.17
2022-09-17T06:38:32.613Z,17.53
2022-09-17T06:39:31.920Z,17.74
2022-09-17T06:40:32.709Z,18.54
2022-09-17T06:41:31.905Z,19.31
2022-09-17T06:42:32.572Z,19.99
2022-09-17T06:43:31.874Z,20.13
2022-09-17T06:44:32.558Z,19.86
2022-09-17T06:45:31.884Z,19.71
2022-09-17T06:46:31.981Z,19.54
2022-09-17T06:47:32.766Z,19.69
2022-09-17T06:48:31.835Z,19.52
2022-09-17T06:49:31.867Z,19.36
2022-09-17T06:50:32.477Z,19.31
2022-09-17T06:51:31.833Z,19.09
2022-09-17T06:52:32.477Z,18.85
2022-09-17T06:53:32.448Z,18.60
2022-09-17T06:54:32.440Z,18.35
2022-09-17T06:55:33.696Z,18.13
2022-09-17T06:56:33.173Z,17.91
2022-09-17T06:57:32.659Z,17.75
2022-09-17T06:58:32.380Z,17.97
2022-09-17T06:59:32.396Z,18.93
2022-09-17T07:00:33.640Z,19.78
2022-09-17T07:01:31.744Z,20.61
2022-09-17T07:02:32.697Z,21.38
2022-09-17T07:03:33.610Z,22.09
2022-09-17T07:04:33.663Z,22.71
2022-09-17T07:05:32.333Z,22.94
2022-09-17T07:06:32.311Z,23.26
2022-09-17T07:07:32.302Z,22.82
2022-09-17T07:08:31.651Z,22.33
2022-09-17T07:09:32.555Z,22.31
2022-09-17T07:10:32.664Z,22.15
2022-09-17T07:11:31.667Z,21.91
2022-09-17T07:12:32.243Z,22.54
2022-09-17T07:13:33.504Z,23.15
2022-09-17T07:14:31.552Z,23.71
2022-09-17T07:15:32.218Z,24.18
2022-09-17T07:16:32.265Z,24.66
2022-09-17T07:17:32.200Z,25.11
2022-09-17T07:18:32.189Z,25.55
2022-09-17T07:19:32.177Z,25.98
2022-09-17T07:20:32.171Z,26.35
2022-09-17T07:21:31.487Z,26.66
2022-09-17T07:22:33.449Z,26.97
2022-09-17T07:23:32.386Z,27.30
2022-09-17T07:24:33.406Z,27.63
2022-09-17T07:25:32.366Z,27.92
2022-09-17T07:26:31.419Z,28.19
2022-09-17T07:27:32.077Z,28.42
2022-09-17T07:28:31.426Z,28.64
2022-09-17T07:29:32.059Z,28.86
2022-09-17T07:30:32.838Z,29.07
2022-09-17T07:31:31.394Z,29.27
2022-09-17T07:32:33.089Z,29.40
2022-09-17T07:33:32.017Z,29.48
2022-09-17T07:34:31.359Z,29.54
2022-09-17T07:35:31.320Z,29.58
2022-09-17T07:36:31.990Z,29.69
2022-09-17T07:37:31.970Z,29.80
2022-09-17T07:38:31.965Z,29.90
2022-09-17T07:39:32.283Z,30.00
2022-09-17T07:40:31.460Z,29.68
2022-09-17T07:41:31.371Z,29.88
2022-09-17T07:42:31.762Z,30.09
2022-09-17T07:43:31.224Z,30.26
2022-09-17T07:44:31.253Z,30.39
2022-09-17T07:45:31.295Z,30.52
2022-09-17T07:46:31.905Z,30.66
2022-09-17T07:47:31.871Z,30.78
2022-09-17T07:48:31.871Z,30.93
2022-09-17T07:49:31.175Z,31.05
2022-09-17T07:50:31.183Z,31.11
2022-09-17T07:51:31.175Z,31.19
2022-09-17T07:52:31.186Z,31.26
2022-09-17T07:53:31.806Z,31.35
2022-09-17T07:54:31.137Z,31.47
2022-09-17T07:55:33.109Z,31.66
2022-09-17T07:56:31.126Z,31.87
2022-09-17T07:57:31.098Z,32.06
2022-09-17T07:58:31.108Z,32.31
2022-09-17T07:59:31.097Z,32.56
2022-09-17T08:00:32.830Z,32.78
2022-09-17T08:01:31.059Z,32.99
2022-09-17T08:02:31.049Z,33.14
2022-09-17T08:03:31.699Z,33.28
2022-09-17T08:04:31.163Z,33.40
2022-09-17T08:05:30.990Z,33.50
2022-09-17T08:06:32.470Z,33.61
2022-09-17T08:07:31.889Z,33.68
2022-09-17T08:08:30.982Z,33.78
2022-09-17T08:09:31.630Z,33.92
2022-09-17T08:10:31.931Z,34.03
2022-09-17T08:11:54.418Z,33.92
2022-09-17T08:12:32.843Z,34.02
2022-09-17T08:13:30.941Z,34.02
2022-09-17T08:14:31.065Z,34.04
2022-09-17T08:15:31.570Z,34.09
2022-09-17T08:16:31.034Z,34.12
2022-09-17T08:17:30.892Z,34.15
2022-09-17T08:18:30.912Z,34.14
2022-09-17T08:19:30.886Z,34.11
2022-09-17T08:20:30.886Z,34.06
2022-09-17T08:21:30.850Z,34.03
2022-09-17T08:22:30.935Z,34.04
2022-09-17T08:23:30.874Z,34.06
2022-09-17T08:24:30.818Z,34.07
2022-09-17T08:25:31.478Z,34.12
2022-09-17T08:26:30.796Z,34.13
2022-09-17T08:27:30.778Z,34.12
2022-09-17T08:28:30.819Z,34.13
2022-09-17T08:29:35.004Z,34.09
2022-09-17T08:30:30.729Z,34.04
2022-09-17T08:31:31.422Z,33.98
2022-09-17T08:32:32.177Z,33.97
2022-09-17T08:33:31.372Z,33.95
2022-09-17T08:34:31.431Z,33.52
2022-09-17T08:35:30.671Z,33.69
2022-09-17T08:36:31.349Z,33.79
2022-09-17T08:37:30.680Z,33.67
2022-09-17T08:38:35.707Z,33.77
2022-09-17T08:39:31.683Z,33.92
2022-09-17T08:40:31.352Z,34.05
2022-09-17T08:41:31.293Z,33.33
2022-09-17T08:42:30.635Z,33.30
2022-09-17T08:43:31.288Z,32.58
2022-09-17T08:44:30.588Z,30.88
2022-09-17T08:45:32.183Z,29.44
2022-09-17T08:46:31.314Z,29.79
2022-09-17T08:47:30.545Z,30.57
2022-09-17T08:48:30.555Z,31.16
2022-09-17T08:49:31.225Z,31.58
2022-09-17T08:50:30.548Z,31.81
2022-09-17T08:51:30.578Z,31.89
2022-09-17T08:52:31.179Z,31.86
2022-09-17T08:53:30.508Z,31.80
2022-09-17T08:54:30.490Z,31.88
2022-09-17T08:55:31.558Z,31.98
2022-09-17T08:56:30.490Z,32.03
2022-09-17T08:57:30.487Z,32.02
2022-09-17T08:58:31.108Z,31.99
2022-09-17T08:59:30.525Z,31.99
2022-09-17T09:00:30.418Z,31.50
2022-09-17T09:01:31.104Z,31.00
2022-09-17T09:02:30.490Z,30.31
2022-09-17T09:03:31.150Z,30.56
2022-09-17T09:04:30.360Z,30.74
2022-09-17T09:05:31.310Z,30.96
2022-09-17T09:06:30.351Z,31.03
2022-09-17T09:07:30.362Z,30.64
2022-09-17T09:08:30.321Z,30.23
2022-09-17T09:09:31.060Z,30.41
2022-09-17T09:10:31.012Z,29.92
2022-09-17T09:11:31.224Z,29.27
2022-09-17T09:12:30.301Z,29.46
2022-09-17T09:13:30.944Z,29.58
2022-09-17T09:14:30.933Z,29.52
2022-09-17T09:15:30.312Z,29.65
2022-09-17T09:16:30.301Z,28.79
2022-09-17T09:17:30.217Z,27.89
2022-09-17T09:18:30.236Z,27.07
2022-09-17T09:19:31.144Z,26.84
2022-09-17T09:20:30.313Z,26.43
2022-09-17T09:21:30.850Z,26.63
2022-09-17T09:22:30.906Z,26.94
2022-09-17T09:23:30.167Z,27.01
2022-09-17T09:24:31.589Z,26.38
2022-09-17T09:25:30.819Z,26.32
2022-09-17T09:26:30.813Z,26.09
2022-09-17T09:27:30.218Z,25.67
2022-09-17T09:28:31.539Z,25.69
2022-09-17T09:29:30.769Z,25.69
2022-09-17T09:30:30.778Z,26.01
2022-09-17T09:31:30.091Z,26.00
2022-09-17T09:32:30.061Z,26.07
2022-09-17T09:33:30.169Z,26.12
2022-09-17T09:34:30.278Z,26.31
2022-09-17T09:35:30.703Z,26.57
2022-09-17T09:36:30.010Z,26.55
2022-09-17T09:37:30.111Z,26.62
2022-09-17T09:38:30.022Z,26.76
2022-09-17T09:39:32.455Z,26.80
2022-09-17T09:40:31.011Z,26.80
2022-09-17T09:41:30.644Z,26.74
2022-09-17T09:42:29.944Z,26.65
2022-09-17T09:43:52.655Z,26.77
2022-09-17T09:44:30.975Z,27.03
2022-09-17T09:45:29.922Z,27.42
2022-09-17T09:46:30.608Z,27.71
2022-09-17T09:47:30.584Z,28.03
2022-09-17T09:48:30.891Z,28.36
2022-09-17T09:49:30.559Z,28.27
2022-09-17T09:50:48.384Z,28.02
2022-09-17T09:51:30.865Z,27.82
2022-09-17T09:52:30.841Z,27.69
2022-09-17T09:53:30.506Z,27.35
2022-09-17T09:54:30.509Z,26.83
2022-09-17T09:55:30.487Z,26.34
2022-09-17T09:56:29.929Z,25.90
2022-09-17T09:57:29.848Z,25.82
2022-09-17T09:58:29.810Z,25.55
2022-09-17T09:59:30.060Z,25.84
2022-09-17T10:00:30.440Z,26.20
2022-09-17T10:01:29.924Z,26.27
2022-09-17T10:02:29.941Z,26.36
2022-09-17T10:03:29.742Z,26.66
2022-09-17T10:04:29.778Z,26.91
2022-09-17T10:05:30.380Z,26.50
2022-09-17T10:06:29.760Z,26.19
2022-09-17T10:07:29.690Z,25.86
2022-09-17T10:08:29.701Z,25.78
2022-09-17T10:09:29.724Z,25.96
2022-09-17T10:10:30.340Z,26.13
2022-09-17T10:11:30.321Z,26.31
2022-09-17T10:12:30.316Z,26.48
2022-09-17T10:13:30.572Z,26.68
2022-09-17T10:14:29.657Z,26.88
2022-09-17T10:15:29.672Z,27.10
2022-09-17T10:16:30.305Z,27.30
2022-09-17T10:17:30.254Z,27.47
2022-09-17T10:18:30.245Z,27.61
2022-09-17T10:19:29.850Z,27.73
2022-09-17T10:20:31.047Z,27.92
2022-09-17T10:21:29.545Z,27.93
2022-09-17T10:22:30.215Z,27.67
2022-09-17T10:23:30.190Z,27.77
2022-09-17T10:24:30.456Z,27.49
2022-09-17T10:25:29.493Z,27.04
2022-09-17T10:26:29.582Z,26.34
2022-09-17T10:27:29.550Z,25.86
2022-09-17T10:28:29.475Z,25.46
2022-09-17T10:29:30.126Z,25.08
2022-09-17T10:30:29.451Z,24.78
2022-09-17T10:31:29.468Z,24.54
2022-09-17T10:32:30.099Z,24.39
2022-09-17T10:33:29.458Z,24.32
2022-09-17T10:34:30.069Z,24.26
2022-09-17T10:35:30.060Z,24.20
2022-09-17T10:36:29.442Z,24.18
2022-09-17T10:37:29.370Z,24.09
2022-09-17T10:38:30.021Z,24.00
2022-09-17T10:39:29.391Z,23.85
2022-09-17T10:40:30.026Z,23.65
2022-09-17T10:41:29.342Z,23.40
2022-09-17T10:42:29.300Z,23.09
2022-09-17T10:43:29.979Z,22.75
2022-09-17T10:44:30.032Z,22.39
2022-09-17T10:45:29.278Z,21.98
2022-09-17T10:46:29.977Z,21.56
2022-09-17T10:47:29.316Z,21.13
2022-09-17T10:48:29.940Z,20.75
2022-09-17T10:49:29.256Z,20.41
2022-09-17T10:50:29.977Z,20.10
2022-09-17T10:51:29.236Z,19.83
2022-09-17T10:52:29.894Z,19.60
2022-09-17T10:53:29.179Z,19.41
2022-09-17T10:54:29.875Z,19.25
2022-09-17T10:55:29.357Z,19.11
2022-09-17T10:56:29.216Z,18.98
2022-09-17T10:57:29.825Z,18.87
2022-09-17T10:58:29.257Z,18.77
2022-09-17T10:59:29.107Z,18.70
2022-09-17T11:00:29.787Z,18.63
2022-09-17T11:01:29.855Z,18.60
2022-09-17T11:02:29.320Z,18.57
2022-09-17T11:03:29.116Z,18.56
2022-09-17T11:04:29.128Z,18.55
2022-09-17T11:05:29.147Z,18.55
2022-09-17T11:06:29.099Z,18.55
2022-09-17T11:07:29.716Z,18.57
2022-09-17T11:08:29.119Z,18.61
2022-09-17T11:09:29.939Z,18.68
2022-09-17T11:10:29.692Z,18.78
2022-09-17T11:11:29.680Z,18.82
2022-09-17T11:12:29.676Z,18.84
2022-09-17T11:13:30.404Z,18.87
2022-09-17T11:14:29.631Z,18.92
2022-09-17T11:15:28.941Z,18.97
2022-09-17T11:16:29.073Z,19.03
2022-09-17T11:17:29.612Z,19.09
2022-09-17T11:18:29.603Z,19.18
2022-09-17T11:19:29.603Z,19.26
2022-09-17T11:20:29.563Z,19.37
2022-09-17T11:21:29.565Z,19.47
2022-09-17T11:22:29.569Z,19.63
2022-09-17T11:23:29.163Z,19.83
2022-09-17T11:24:29.537Z,20.02
2022-09-17T11:25:29.526Z,20.24
2022-09-17T11:26:29.605Z,20.44
2022-09-17T11:27:28.822Z,20.62
2022-09-17T11:28:28.824Z,20.76
2022-09-17T11:29:29.483Z,20.88
2022-09-17T11:30:28.795Z,20.98
2022-09-17T11:31:28.905Z,21.05
2022-09-17T11:32:28.927Z,21.13
2022-09-17T11:33:28.756Z,21.15
2022-09-17T11:34:28.754Z,21.14
2022-09-17T11:35:29.418Z,21.11
2022-09-17T11:36:28.763Z,21.11
2022-09-17T11:37:29.389Z,21.08
2022-09-17T11:38:29.464Z,21.03
2022-09-17T11:39:28.750Z,20.99
2022-09-17T11:40:29.704Z,20.98
2022-09-17T11:41:28.694Z,20.95
2022-09-17T11:42:29.336Z,20.82
2022-09-17T11:43:28.647Z,20.64
2022-09-17T11:44:29.619Z,20.46
2022-09-17T11:45:29.308Z,20.29
2022-09-17T11:46:29.337Z,20.23
2022-09-17T11:47:29.282Z,20.12
2022-09-17T11:48:29.282Z,20.01
2022-09-17T11:49:29.261Z,19.95
2022-09-17T11:50:30.082Z,19.95
2022-09-17T11:51:28.583Z,19.98
2022-09-17T11:52:28.583Z,20.07
2022-09-17T11:53:29.234Z,20.22
2022-09-17T11:54:29.225Z,20.32
2022-09-17T11:55:29.193Z,20.44
2022-09-17T11:56:28.564Z,20.55
2022-09-17T11:57:28.881Z,20.58
2022-09-17T11:58:29.929Z,20.68
2022-09-17T11:59:28.545Z,20.81
2022-09-17T12:00:29.144Z,20.90
2022-09-17T12:01:29.945Z,20.91
2022-09-17T12:02:29.958Z,20.94
2022-09-17T12:03:29.121Z,20.93
2022-09-17T12:04:29.110Z,21.00
2022-09-17T12:05:29.392Z,21.10
2022-09-17T12:06:29.076Z,21.17
2022-09-17T12:07:29.069Z,21.24
2022-09-17T12:08:29.049Z,21.32
2022-09-17T12:09:28.397Z,21.34
2022-09-17T12:10:28.368Z,21.35
2022-09-17T12:11:28.357Z,21.32
2022-09-17T12:12:49.224Z,21.24
2022-09-17T12:13:30.897Z,21.18
2022-09-17T12:14:28.362Z,21.11
2022-09-17T12:15:28.980Z,21.01
2022-09-17T12:16:28.363Z,20.92
2022-09-17T12:17:28.969Z,20.96
2022-09-17T12:18:33.273Z,21.07
2022-09-17T12:19:29.028Z,21.19
2022-09-17T12:20:29.789Z,21.21
2022-09-17T12:21:28.240Z,21.21
2022-09-17T12:22:28.903Z,21.14
2022-09-17T12:23:28.241Z,21.04
2022-09-17T12:24:28.891Z,20.92
2022-09-17T12:25:28.262Z,20.82
2022-09-17T12:26:29.111Z,20.71
2022-09-17T12:27:29.612Z,20.59
2022-09-17T12:28:28.833Z,20.49
2022-09-17T12:29:28.144Z,20.41
2022-09-17T12:30:29.594Z,20.32
2022-09-17T12:31:28.288Z,20.25
2022-09-17T12:32:28.135Z,20.20
2022-09-17T12:33:28.146Z,20.12
2022-09-17T12:34:29.557Z,20.06
2022-09-17T12:35:52.692Z,20.00
2022-09-17T12:36:29.214Z,19.95
2022-09-17T12:37:28.046Z,19.93
2022-09-17T12:38:28.045Z,19.92
2022-09-17T12:39:28.065Z,19.92
2022-09-17T12:40:28.125Z,19.91
2022-09-17T12:41:28.016Z,19.91
2022-09-17T12:42:28.136Z,19.93
2022-09-17T12:43:28.058Z,19.96
2022-09-17T12:44:28.039Z,20.00
2022-09-17T12:45:28.656Z,20.03
2022-09-17T12:46:28.026Z,20.08
2022-09-17T12:47:28.653Z,20.15
2022-09-17T12:48:28.608Z,20.26
2022-09-17T12:49:28.000Z,20.38
2022-09-17T12:50:27.929Z,20.49
2022-09-17T12:51:27.898Z,20.59
2022-09-17T12:52:28.580Z,20.67